Terminal Aerodrome Forecast
Issued by NWS Boise, ID

Home | Current Version | Previous Version | Text Only | Print | Product List | Glossary On
Versions: 1 2 3 4 5 6 7 8 9 10 11 12 13 14 15 16 17 18 19 20 21 22 23 24 25 26 27 28
000
FTUS45 KBOI 272335
TAFBOI
TAF
KBOI 272335Z 2800/2824 12010KT P6SM -SN OVC050
     FM280300 13010KT 3SM -SN BR SCT010 OVC020
     FM280600 13009KT 1SM -SN BR OVC009
     FM281200 31006KT 4SM -SN BR SCT009 OVC015
     FM282100 32015KT P6SM VCSH BKN030=

USA.gov is the U.S. government's official web portal to all federal, state and local government web resources and services.